Terminal Aerodrome Forecast
Issued by NWS

Home | Current Version | Previous Version | Text Only | Print | Product List | Glossary On
Versions: 1 2 3 4 5 6 7 8 9 10 11 12 13 14
877
FTUS46 KSTO 251425 AAA
TAFRBL
TAF AMD
KRBL 251425Z 2514/2612 15014KT 2SM RA BR SCT020 OVC050
      TEMPO 2514/2518 6SM -SHRA OVC020
     FM251900 16012KT P6SM -SHRA OVC040
     FM260000 18006KT P6SM -SHRA BKN050
      TEMPO 2609/2612 OVC025=

USA.gov is the U.S. government's official web portal to all federal, state and local government web resources and services.